sensor_id;sensor_type;location;lat;lon;timestamp;pressure;altitude;pressure_sealevel;temperature;humidity
74310;BME280;62722;51.142;17.052;2023-06-19T00:00:57;100133.31;;;16.88;79.21
74310;BME280;62722;51.142;17.052;2023-06-19T00:03:37;100131.34;;;16.90;78.61
74310;BME280;62722;51.142;17.052;2023-06-19T00:06:06;100128.97;;;16.87;79.04
74310;BME280;62722;51.142;17.052;2023-06-19T00:08:34;100132.47;;;16.78;79.25
74310;BME280;62722;51.142;17.052;2023-06-19T00:11:02;100121.41;;;16.73;79.32
74310;BME280;62722;51.142;17.052;2023-06-19T00:13:31;100124.78;;;16.75;79.38
74310;BME280;62722;51.142;17.052;2023-06-19T00:16:00;100120.44;;;16.74;79.34
74310;BME280;62722;51.142;17.052;2023-06-19T00:18:27;100122.69;;;16.69;79.31
74310;BME280;62722;51.142;17.052;2023-06-19T00:20:57;100119.75;;;16.62;79.65
74310;BME280;62722;51.142;17.052;2023-06-19T00:23:25;100116.50;;;16.49;80.20
74310;BME280;62722;51.142;17.052;2023-06-19T00:28:31;100109.81;;;16.26;81.32
74310;BME280;62722;51.142;17.052;2023-06-19T00:30:58;100118.88;;;16.23;81.71
74310;BME280;62722;51.142;17.052;2023-06-19T00:33:25;100117.34;;;16.30;81.52
74310;BME280;62722;51.142;17.052;2023-06-19T00:35:53;100113.28;;;16.36;81.04
74310;BME280;62722;51.142;17.052;2023-06-19T00:38:21;100120.88;;;16.40;80.85
74310;BME280;62722;51.142;17.052;2023-06-19T00:40:51;100119.56;;;16.44;80.42
74310;BME280;62722;51.142;17.052;2023-06-19T00:43:18;100118.91;;;16.33;80.40
74310;BME280;62722;51.142;17.052;2023-06-19T00:45:46;100119.19;;;16.20;81.31
74310;BME280;62722;51.142;17.052;2023-06-19T00:48:13;100121.41;;;16.15;81.67
74310;BME280;62722;51.142;17.052;2023-06-19T00:50:40;100119.31;;;16.19;81.18
74310;BME280;62722;51.142;17.052;2023-06-19T00:53:08;100123.81;;;16.28;80.46
74310;BME280;62722;51.142;17.052;2023-06-19T00:55:36;100112.31;;;16.27;80.11
74310;BME280;62722;51.142;17.052;2023-06-19T00:58:06;100108.50;;;16.30;80.32
74310;BME280;62722;51.142;17.052;2023-06-19T01:00:34;100108.09;;;16.25;80.53
74310;BME280;62722;51.142;17.052;2023-06-19T01:03:01;100103.63;;;16.25;80.65
74310;BME280;62722;51.142;17.052;2023-06-19T01:05:30;100105.56;;;16.23;80.66
74310;BME280;62722;51.142;17.052;2023-06-19T01:08:00;100106.84;;;16.19;80.88
74310;BME280;62722;51.142;17.052;2023-06-19T01:10:35;100105.19;;;16.18;80.97
74310;BME280;62722;51.142;17.052;2023-06-19T01:13:10;100112.03;;;16.21;80.36
74310;BME280;62722;51.142;17.052;2023-06-19T01:15:38;100102.75;;;16.15;80.73
74310;BME280;62722;51.142;17.052;2023-06-19T01:18:07;100106.44;;;16.14;80.72
74310;BME280;62722;51.142;17.052;2023-06-19T01:20:37;100102.06;;;16.13;80.63
74310;BME280;62722;51.142;17.052;2023-06-19T01:23:10;100107.41;;;16.13;80.63
74310;BME280;62722;51.142;17.052;2023-06-19T01:25:38;100103.19;;;16.01;81.12
74310;BME280;62722;51.142;17.052;2023-06-19T01:28:08;100108.91;;;15.87;82.04
74310;BME280;62722;51.142;17.052;2023-06-19T01:30:36;100109.47;;;15.81;82.11
74310;BME280;62722;51.142;17.052;2023-06-19T01:33:07;100108.34;;;15.83;82.05
74310;BME280;62722;51.142;17.052;2023-06-19T01:35:40;100114.34;;;15.85;81.42
74310;BME280;62722;51.142;17.052;2023-06-19T01:38:10;100115.94;;;15.88;80.83
74310;BME280;62722;51.142;17.052;2023-06-19T01:40:39;100108.50;;;15.91;80.84
74310;BME280;62722;51.142;17.052;2023-06-19T01:43:08;100107.38;;;15.94;80.43
74310;BME280;62722;51.142;17.052;2023-06-19T01:45:36;100103.47;;;15.88;80.89
74310;BME280;62722;51.142;17.052;2023-06-19T01:48:04;100120.97;;;15.91;80.39
74310;BME280;62722;51.142;17.052;2023-06-19T01:50:32;100115.09;;;15.87;80.78
74310;BME280;62722;51.142;17.052;2023-06-19T01:52:59;100112.41;;;15.87;80.28
74310;BME280;62722;51.142;17.052;2023-06-19T01:55:28;100107.66;;;15.81;80.30
74310;BME280;62722;51.142;17.052;2023-06-19T01:57:55;100112.81;;;15.73;80.72
74310;BME280;62722;51.142;17.052;2023-06-19T02:00:23;100121.91;;;15.71;80.99
74310;BME280;62722;51.142;17.052;2023-06-19T02:02:50;100109.16;;;15.65;81.02
74310;BME280;62722;51.142;17.052;2023-06-19T02:05:17;100115.44;;;15.64;81.40
74310;BME280;62722;51.142;17.052;2023-06-19T02:07:45;100116.84;;;15.58;82.78
74310;BME280;62722;51.142;17.052;2023-06-19T02:10:12;100112.09;;;15.62;81.62
74310;BME280;62722;51.142;17.052;2023-06-19T02:12:41;100107.47;;;15.64;81.59
74310;BME280;62722;51.142;17.052;2023-06-19T02:15:09;100107.34;;;15.65;81.46
74310;BME280;62722;51.142;17.052;2023-06-19T02:17:36;100110.41;;;15.61;81.67
74310;BME280;62722;51.142;17.052;2023-06-19T02:20:05;100113.59;;;15.54;81.89
74310;BME280;62722;51.142;17.052;2023-06-19T02:22:34;100113.03;;;15.51;81.70
74310;BME280;62722;51.142;17.052;2023-06-19T02:25:02;100114.25;;;15.47;81.89
74310;BME280;62722;51.142;17.052;2023-06-19T02:27:29;100107.22;;;15.36;82.63
74310;BME280;62722;51.142;17.052;2023-06-19T02:29:58;100105.50;;;15.26;83.24
74310;BME280;62722;51.142;17.052;2023-06-19T02:32:26;100103.75;;;15.15;83.80
74310;BME280;62722;51.142;17.052;2023-06-19T02:34:53;100113.03;;;15.21;83.49
74310;BME280;62722;51.142;17.052;2023-06-19T02:37:20;100104.38;;;15.28;82.97
74310;BME280;62722;51.142;17.052;2023-06-19T02:39:48;100108.19;;;15.35;82.76
74310;BME280;62722;51.142;17.052;2023-06-19T02:42:15;100105.34;;;15.27;83.01
74310;BME280;62722;51.142;17.052;2023-06-19T02:44:43;100104.34;;;15.19;83.33
74310;BME280;62722;51.142;17.052;2023-06-19T02:47:12;100106.88;;;15.20;83.46
74310;BME280;62722;51.142;17.052;2023-06-19T02:49:40;100106.16;;;15.18;83.24
74310;BME280;62722;51.142;17.052;2023-06-19T02:52:08;100107.91;;;15.08;83.96
74310;BME280;62722;51.142;17.052;2023-06-19T02:54:35;100106.47;;;14.94;84.57
74310;BME280;62722;51.142;17.052;2023-06-19T02:57:03;100111.84;;;14.83;85.36
74310;BME280;62722;51.142;17.052;2023-06-19T02:59:30;100116.19;;;14.84;86.02
74310;BME280;62722;51.142;17.052;2023-06-19T03:01:57;100124.09;;;14.95;84.95
74310;BME280;62722;51.142;17.052;2023-06-19T03:04:26;100115.47;;;15.03;84.08
74310;BME280;62722;51.142;17.052;2023-06-19T03:06:55;100128.69;;;15.14;83.11
74310;BME280;62722;51.142;17.052;2023-06-19T03:09:22;100123.78;;;15.19;82.70
74310;BME280;62722;51.142;17.052;2023-06-19T03:11:49;100128.97;;;15.21;83.08
74310;BME280;62722;51.142;17.052;2023-06-19T03:14:17;100123.38;;;15.24;82.90
74310;BME280;62722;51.142;17.052;2023-06-19T03:16:44;100125.94;;;15.25;82.93
74310;BME280;62722;51.142;17.052;2023-06-19T03:19:11;100125.34;;;15.22;83.45
74310;BME280;62722;51.142;17.052;2023-06-19T03:21:40;100125.47;;;15.20;83.35
74310;BME280;62722;51.142;17.052;2023-06-19T03:24:08;100132.22;;;15.24;83.44
74310;BME280;62722;51.142;17.052;2023-06-19T03:26:35;100136.84;;;15.22;83.19
74310;BME280;62722;51.142;17.052;2023-06-19T03:29:02;100126.97;;;15.13;83.70
74310;BME280;62722;51.142;17.052;2023-06-19T03:31:30;100129.16;;;14.98;84.64
74310;BME280;62722;51.142;17.052;2023-06-19T03:33:57;100124.53;;;15.00;85.26
74310;BME280;62722;51.142;17.052;2023-06-19T03:36:24;100124.53;;;15.00;85.30
74310;BME280;62722;51.142;17.052;2023-06-19T03:38:53;100105.63;;;14.94;86.13
74310;BME280;62722;51.142;17.052;2023-06-19T03:41:21;100108.16;;;14.95;86.55
74310;BME280;62722;51.142;17.052;2023-06-19T03:43:48;100118.50;;;14.98;86.95
74310;BME280;62722;51.142;17.052;2023-06-19T03:46:15;100107.63;;;15.01;87.28
74310;BME280;62722;51.142;17.052;2023-06-19T03:48:43;100111.56;;;15.07;87.13
74310;BME280;62722;51.142;17.052;2023-06-19T03:51:10;100111.88;;;15.14;87.75
74310;BME280;62722;51.142;17.052;2023-06-19T03:53:37;100106.75;;;15.22;87.43
74310;BME280;62722;51.142;17.052;2023-06-19T03:56:06;100111.81;;;15.34;87.11
74310;BME280;62722;51.142;17.052;2023-06-19T03:58:34;100105.31;;;15.48;87.67
74310;BME280;62722;51.142;17.052;2023-06-19T04:01:01;100115.44;;;15.64;86.55
74310;BME280;62722;51.142;17.052;2023-06-19T04:03:29;100114.06;;;15.79;86.50
74310;BME280;62722;51.142;17.052;2023-06-19T04:05:56;100124.75;;;15.88;85.94
74310;BME280;62722;51.142;17.052;2023-06-19T04:08:23;100121.81;;;16.01;85.88
74310;BME280;62722;51.142;17.052;2023-06-19T04:10:51;100121.28;;;16.17;84.86
74310;BME280;62722;51.142;17.052;2023-06-19T04:13:20;100125.34;;;16.30;84.58
74310;BME280;62722;51.142;17.052;2023-06-19T04:15:47;100124.50;;;16.39;83.65
74310;BME280;62722;51.142;17.052;2023-06-19T04:18:15;100122.13;;;16.46;83.14
74310;BME280;62722;51.142;17.052;2023-06-19T04:20:42;100129.84;;;16.59;82.96
74310;BME280;62722;51.142;17.052;2023-06-19T04:23:10;100127.59;;;16.73;82.69
74310;BME280;62722;51.142;17.052;2023-06-19T04:25:37;100126.00;;;16.90;81.81
74310;BME280;62722;51.142;17.052;2023-06-19T04:28:05;100117.97;;;17.09;81.41
74310;BME280;62722;51.142;17.052;2023-06-19T04:30:33;100119.78;;;17.09;81.14
74310;BME280;62722;51.142;17.052;2023-06-19T04:33:01;100111.34;;;17.13;81.32
74310;BME280;62722;51.142;17.052;2023-06-19T04:35:28;100118.75;;;17.19;81.04
74310;BME280;62722;51.142;17.052;2023-06-19T04:37:55;100125.22;;;17.17;80.72
74310;BME280;62722;51.142;17.052;2023-06-19T04:40:26;100123.84;;;17.13;80.42
74310;BME280;62722;51.142;17.052;2023-06-19T04:42:54;100127.66;;;17.10;80.89
74310;BME280;62722;51.142;17.052;2023-06-19T04:45:21;100124.97;;;17.10;80.67
74310;BME280;62722;51.142;17.052;2023-06-19T04:47:50;100127.47;;;17.12;80.94
74310;BME280;62722;51.142;17.052;2023-06-19T04:50:17;100127.34;;;17.13;81.28
74310;BME280;62722;51.142;17.052;2023-06-19T04:52:44;100128.88;;;17.16;80.80
74310;BME280;62722;51.142;17.052;2023-06-19T04:55:13;100133.78;;;17.20;80.79
74310;BME280;62722;51.142;17.052;2023-06-19T04:57:40;100134.31;;;17.24;80.12
74310;BME280;62722;51.142;17.052;2023-06-19T05:00:08;100128.84;;;17.25;79.94
74310;BME280;62722;51.142;17.052;2023-06-19T05:02:37;100131.06;;;17.30;80.23
74310;BME280;62722;51.142;17.052;2023-06-19T05:05:06;100134.00;;;17.36;80.16
74310;BME280;62722;51.142;17.052;2023-06-19T05:07:34;100134.38;;;17.41;80.28
74310;BME280;62722;51.142;17.052;2023-06-19T05:10:01;100131.59;;;17.43;79.75
74310;BME280;62722;51.142;17.052;2023-06-19T05:12:29;100130.44;;;17.45;79.50
74310;BME280;62722;51.142;17.052;2023-06-19T05:14:56;100137.47;;;17.46;79.62
74310;BME280;62722;51.142;17.052;2023-06-19T05:17:23;100128.47;;;17.47;80.00
74310;BME280;62722;51.142;17.052;2023-06-19T05:19:50;100132.69;;;17.50;80.02
74310;BME280;62722;51.142;17.052;2023-06-19T05:22:19;100131.53;;;17.52;80.32
74310;BME280;62722;51.142;17.052;2023-06-19T05:24:49;100139.13;;;17.57;79.86
74310;BME280;62722;51.142;17.052;2023-06-19T05:27:17;100142.75;;;17.66;80.22
74310;BME280;62722;51.142;17.052;2023-06-19T05:29:44;100146.75;;;17.79;80.08
74310;BME280;62722;51.142;17.052;2023-06-19T05:32:12;100152.00;;;17.89;78.77
74310;BME280;62722;51.142;17.052;2023-06-19T05:34:39;100151.00;;;17.99;78.92
74310;BME280;62722;51.142;17.052;2023-06-19T05:37:07;100153.88;;;18.06;79.18
74310;BME280;62722;51.142;17.052;2023-06-19T05:39:36;100168.31;;;18.13;78.14
74310;BME280;62722;51.142;17.052;2023-06-19T05:42:04;100167.88;;;18.18;78.49
74310;BME280;62722;51.142;17.052;2023-06-19T05:44:31;100178.38;;;18.19;78.25
74310;BME280;62722;51.142;17.052;2023-06-19T05:46:58;100172.28;;;18.27;77.91
74310;BME280;62722;51.142;17.052;2023-06-19T05:49:25;100172.06;;;18.38;77.95
74310;BME280;62722;51.142;17.052;2023-06-19T05:51:53;100179.56;;;18.52;76.44
74310;BME280;62722;51.142;17.052;2023-06-19T05:54:24;100184.88;;;18.62;76.57
74310;BME280;62722;51.142;17.052;2023-06-19T05:56:53;100184.22;;;18.68;75.21
74310;BME280;62722;51.142;17.052;2023-06-19T05:59:20;100177.13;;;18.76;75.25
74310;BME280;62722;51.142;17.052;2023-06-19T06:01:48;100172.66;;;18.85;76.01
74310;BME280;62722;51.142;17.052;2023-06-19T06:04:16;100176.09;;;18.95;75.13
74310;BME280;62722;51.142;17.052;2023-06-19T06:06:44;100181.66;;;19.02;73.92
74310;BME280;62722;51.142;17.052;2023-06-19T06:09:11;100183.09;;;19.14;74.88
74310;BME280;62722;51.142;17.052;2023-06-19T06:11:40;100189.69;;;19.27;75.22
74310;BME280;62722;51.142;17.052;2023-06-19T06:14:24;100178.13;;;19.44;74.47
74310;BME280;62722;51.142;17.052;2023-06-19T06:16:52;100192.25;;;19.63;72.15
74310;BME280;62722;51.142;17.052;2023-06-19T06:19:20;100193.00;;;19.73;69.20
74310;BME280;62722;51.142;17.052;2023-06-19T06:21:48;100189.34;;;19.82;69.43
74310;BME280;62722;51.142;17.052;2023-06-19T06:24:16;100199.25;;;19.89;67.99
74310;BME280;62722;51.142;17.052;2023-06-19T06:26:43;100197.56;;;19.88;68.74
74310;BME280;62722;51.142;17.052;2023-06-19T06:29:10;100193.06;;;19.97;69.53
74310;BME280;62722;51.142;17.052;2023-06-19T06:31:39;100197.78;;;20.03;69.36
74310;BME280;62722;51.142;17.052;2023-06-19T06:34:07;100199.81;;;20.09;68.29
74310;BME280;62722;51.142;17.052;2023-06-19T06:36:35;100208.72;;;20.10;67.98
74310;BME280;62722;51.142;17.052;2023-06-19T06:39:02;100200.50;;;20.11;69.96
74310;BME280;62722;51.142;17.052;2023-06-19T06:41:30;100204.88;;;20.20;68.84
74310;BME280;62722;51.142;17.052;2023-06-19T06:43:57;100208.94;;;20.32;67.63
74310;BME280;62722;51.142;17.052;2023-06-19T06:46:24;100209.66;;;20.43;66.70
74310;BME280;62722;51.142;17.052;2023-06-19T06:48:53;100206.97;;;20.43;66.80
74310;BME280;62722;51.142;17.052;2023-06-19T06:51:20;100216.69;;;20.52;67.85
74310;BME280;62722;51.142;17.052;2023-06-19T06:53:48;100213.03;;;20.53;66.31
74310;BME280;62722;51.142;17.052;2023-06-19T06:56:15;100212.69;;;20.56;68.17
74310;BME280;62722;51.142;17.052;2023-06-19T06:58:43;100221.06;;;20.61;67.05
74310;BME280;62722;51.142;17.052;2023-06-19T07:01:12;100222.44;;;20.65;67.12
74310;BME280;62722;51.142;17.052;2023-06-19T07:03:40;100218.06;;;20.72;66.83
74310;BME280;62722;51.142;17.052;2023-06-19T07:06:09;100215.72;;;20.77;65.50
74310;BME280;62722;51.142;17.052;2023-06-19T07:08:36;100226.13;;;20.80;66.33
74310;BME280;62722;51.142;17.052;2023-06-19T07:11:04;100230.31;;;20.82;66.98
74310;BME280;62722;51.142;17.052;2023-06-19T07:13:31;100223.44;;;20.88;66.33
74310;BME280;62722;51.142;17.052;2023-06-19T07:15:59;100217.41;;;20.94;66.66
74310;BME280;62722;51.142;17.052;2023-06-19T07:18:27;100210.88;;;20.97;65.86
74310;BME280;62722;51.142;17.052;2023-06-19T07:20:54;100219.25;;;21.02;66.01
74310;BME280;62722;51.142;17.052;2023-06-19T07:23:23;100209.34;;;21.10;66.54
74310;BME280;62722;51.142;17.052;2023-06-19T07:25:51;100213.38;;;21.22;65.48
74310;BME280;62722;51.142;17.052;2023-06-19T07:28:18;100211.34;;;21.32;64.62
74310;BME280;62722;51.142;17.052;2023-06-19T07:30:45;100220.59;;;21.38;65.74
74310;BME280;62722;51.142;17.052;2023-06-19T07:33:14;100216.03;;;21.47;67.19
74310;BME280;62722;51.142;17.052;2023-06-19T07:35:41;100210.63;;;21.55;66.62
74310;BME280;62722;51.142;17.052;2023-06-19T07:38:08;100209.13;;;21.60;65.76
74310;BME280;62722;51.142;17.052;2023-06-19T07:40:37;100215.97;;;21.71;63.86
74310;BME280;62722;51.142;17.052;2023-06-19T07:43:04;100219.47;;;21.79;63.59
74310;BME280;62722;51.142;17.052;2023-06-19T07:45:32;100211.53;;;21.86;67.02
74310;BME280;62722;51.142;17.052;2023-06-19T07:47:59;100212.53;;;22.01;63.15
74310;BME280;62722;51.142;17.052;2023-06-19T07:50:26;100216.53;;;22.05;62.84
74310;BME280;62722;51.142;17.052;2023-06-19T07:52:54;100216.34;;;22.07;63.32
74310;BME280;62722;51.142;17.052;2023-06-19T07:55:21;100211.63;;;22.17;63.49
74310;BME280;62722;51.142;17.052;2023-06-19T07:57:50;100215.75;;;22.27;63.86
74310;BME280;62722;51.142;17.052;2023-06-19T08:00:18;100210.66;;;22.32;63.35
74310;BME280;62722;51.142;17.052;2023-06-19T08:02:45;100219.41;;;22.35;62.08
74310;BME280;62722;51.142;17.052;2023-06-19T08:05:13;100218.03;;;22.39;63.42
74310;BME280;62722;51.142;17.052;2023-06-19T08:07:40;100205.91;;;22.43;62.48
74310;BME280;62722;51.142;17.052;2023-06-19T08:10:08;100214.75;;;22.51;60.60
74310;BME280;62722;51.142;17.052;2023-06-19T08:12:36;100211.88;;;22.53;61.32
74310;BME280;62722;51.142;17.052;2023-06-19T08:15:06;100213.84;;;22.59;63.03
74310;BME280;62722;51.142;17.052;2023-06-19T08:17:33;100215.84;;;22.65;61.07
74310;BME280;62722;51.142;17.052;2023-06-19T08:20:01;100209.78;;;22.71;60.86
74310;BME280;62722;51.142;17.052;2023-06-19T08:22:30;100201.16;;;22.75;61.00
74310;BME280;62722;51.142;17.052;2023-06-19T08:24:58;100209.66;;;22.87;59.75
74310;BME280;62722;51.142;17.052;2023-06-19T08:27:25;100201.84;;;22.92;59.31
74310;BME280;62722;51.142;17.052;2023-06-19T08:29:53;100203.53;;;22.93;59.31
74310;BME280;62722;51.142;17.052;2023-06-19T08:32:21;100192.97;;;23.06;58.80
74310;BME280;62722;51.142;17.052;2023-06-19T08:34:49;100197.81;;;23.11;58.68
74310;BME280;62722;51.142;17.052;2023-06-19T08:37:17;100193.91;;;23.13;58.81
74310;BME280;62722;51.142;17.052;2023-06-19T08:39:45;100197.75;;;23.19;55.85
74310;BME280;62722;51.142;17.052;2023-06-19T08:42:13;100202.75;;;23.22;54.21
74310;BME280;62722;51.142;17.052;2023-06-19T08:44:40;100192.47;;;23.25;57.06
74310;BME280;62722;51.142;17.052;2023-06-19T08:47:07;100188.25;;;23.46;56.70
74310;BME280;62722;51.142;17.052;2023-06-19T08:49:37;100185.94;;;23.43;57.01
74310;BME280;62722;51.142;17.052;2023-06-19T08:52:05;100182.88;;;23.46;56.69
74310;BME280;62722;51.142;17.052;2023-06-19T08:54:33;100184.91;;;23.44;51.22
74310;BME280;62722;51.142;17.052;2023-06-19T08:57:10;100187.94;;;23.41;51.40
74310;BME280;62722;51.142;17.052;2023-06-19T08:59:38;100183.38;;;23.41;52.70
74310;BME280;62722;51.142;17.052;2023-06-19T09:02:06;100182.13;;;23.52;52.10
74310;BME280;62722;51.142;17.052;2023-06-19T09:04:33;100179.78;;;23.63;53.00
74310;BME280;62722;51.142;17.052;2023-06-19T09:07:03;100187.94;;;23.85;53.31
74310;BME280;62722;51.142;17.052;2023-06-19T09:09:31;100182.56;;;23.85;53.67
74310;BME280;62722;51.142;17.052;2023-06-19T09:12:00;100188.97;;;23.84;54.01
74310;BME280;62722;51.142;17.052;2023-06-19T09:14:32;100187.94;;;23.85;54.10
74310;BME280;62722;51.142;17.052;2023-06-19T09:17:00;100183.69;;;23.75;54.64
74310;BME280;62722;51.142;17.052;2023-06-19T09:19:28;100172.81;;;23.69;53.69
74310;BME280;62722;51.142;17.052;2023-06-19T09:21:59;100175.78;;;23.74;54.99
74310;BME280;62722;51.142;17.052;2023-06-19T09:24:34;100176.47;;;23.76;53.43
74310;BME280;62722;51.142;17.052;2023-06-19T09:27:06;100178.16;;;23.98;52.49
74310;BME280;62722;51.142;17.052;2023-06-19T09:29:36;100182.59;;;24.06;53.20
74310;BME280;62722;51.142;17.052;2023-06-19T09:32:15;100174.63;;;24.12;50.92
74310;BME280;62722;51.142;17.052;2023-06-19T09:34:43;100178.06;;;24.06;52.09
74310;BME280;62722;51.142;17.052;2023-06-19T09:37:10;100175.56;;;24.19;51.22
74310;BME280;62722;51.142;17.052;2023-06-19T09:39:39;100176.75;;;24.17;51.25
74310;BME280;62722;51.142;17.052;2023-06-19T09:42:09;100171.81;;;24.06;50.03
74310;BME280;62722;51.142;17.052;2023-06-19T09:44:40;100169.44;;;23.96;51.84
74310;BME280;62722;51.142;17.052;2023-06-19T09:47:15;100177.25;;;23.91;51.05
74310;BME280;62722;51.142;17.052;2023-06-19T09:49:48;100179.56;;;24.09;49.55
74310;BME280;62722;51.142;17.052;2023-06-19T09:52:17;100168.88;;;24.15;48.96
74310;BME280;62722;51.142;17.052;2023-06-19T09:54:50;100163.78;;;24.42;47.72
74310;BME280;62722;51.142;17.052;2023-06-19T09:57:18;100162.59;;;24.51;46.72
74310;BME280;62722;51.142;17.052;2023-06-19T09:59:48;100159.50;;;24.54;46.87
74310;BME280;62722;51.142;17.052;2023-06-19T10:02:17;100158.81;;;24.45;47.03
74310;BME280;62722;51.142;17.052;2023-06-19T10:04:46;100156.56;;;24.28;48.03
74310;BME280;62722;51.142;17.052;2023-06-19T10:07:16;100170.06;;;24.28;47.55
74310;BME280;62722;51.142;17.052;2023-06-19T10:10:01;100155.19;;;24.17;49.14
74310;BME280;62722;51.142;17.052;2023-06-19T10:12:37;100161.88;;;24.21;48.33
74310;BME280;62722;51.142;17.052;2023-06-19T10:15:12;100156.69;;;24.41;48.34
74310;BME280;62722;51.142;17.052;2023-06-19T10:17:48;100165.44;;;24.64;47.77
74310;BME280;62722;51.142;17.052;2023-06-19T10:20:25;100160.53;;;24.95;44.56
74310;BME280;62722;51.142;17.052;2023-06-19T10:22:58;100150.25;;;25.05;42.66
74310;BME280;62722;51.142;17.052;2023-06-19T10:25:30;100153.31;;;25.02;44.63
74310;BME280;62722;51.142;17.052;2023-06-19T10:27:58;100152.56;;;25.08;44.24
74310;BME280;62722;51.142;17.052;2023-06-19T10:30:27;100156.25;;;25.01;41.79
74310;BME280;62722;51.142;17.052;2023-06-19T10:32:55;100142.69;;;24.94;40.05
74310;BME280;62722;51.142;17.052;2023-06-19T10:35:23;100151.41;;;24.96;44.45
74310;BME280;62722;51.142;17.052;2023-06-19T10:37:51;100144.97;;;25.25;42.75
74310;BME280;62722;51.142;17.052;2023-06-19T10:40:19;100150.41;;;25.32;42.31
74310;BME280;62722;51.142;17.052;2023-06-19T10:42:47;100149.38;;;25.33;42.65
74310;BME280;62722;51.142;17.052;2023-06-19T10:45:15;100151.09;;;25.40;41.56
74310;BME280;62722;51.142;17.052;2023-06-19T10:47:46;100151.75;;;25.42;41.25
74310;BME280;62722;51.142;17.052;2023-06-19T10:50:14;100142.00;;;25.48;40.82
74310;BME280;62722;51.142;17.052;2023-06-19T10:52:43;100142.13;;;25.33;42.07
74310;BME280;62722;51.142;17.052;2023-06-19T10:55:12;100141.69;;;25.30;43.56
74310;BME280;62722;51.142;17.052;2023-06-19T10:57:40;100134.28;;;25.45;41.27
74310;BME280;62722;51.142;17.052;2023-06-19T11:00:11;100137.34;;;25.63;39.25
74310;BME280;62722;51.142;17.052;2023-06-19T11:02:39;100135.72;;;25.75;37.46
74310;BME280;62722;51.142;17.052;2023-06-19T11:05:10;100133.22;;;25.74;38.77
74310;BME280;62722;51.142;17.052;2023-06-19T11:07:38;100133.66;;;25.77;38.01
74310;BME280;62722;51.142;17.052;2023-06-19T11:10:07;100143.22;;;25.80;39.70
74310;BME280;62722;51.142;17.052;2023-06-19T11:12:34;100132.06;;;25.96;36.92
74310;BME280;62722;51.142;17.052;2023-06-19T11:15:06;100129.53;;;25.94;39.34
74310;BME280;62722;51.142;17.052;2023-06-19T11:17:34;100134.78;;;26.09;39.24
74310;BME280;62722;51.142;17.052;2023-06-19T11:20:02;100135.06;;;26.21;37.30
74310;BME280;62722;51.142;17.052;2023-06-19T11:22:36;100128.00;;;26.20;39.99
74310;BME280;62722;51.142;17.052;2023-06-19T11:25:06;100129.66;;;26.21;36.72
74310;BME280;62722;51.142;17.052;2023-06-19T11:27:33;100137.31;;;26.17;36.16
74310;BME280;62722;51.142;17.052;2023-06-19T11:30:01;100134.22;;;26.20;36.04
74310;BME280;62722;51.142;17.052;2023-06-19T11:32:31;100123.78;;;26.17;39.09
74310;BME280;62722;51.142;17.052;2023-06-19T11:35:04;100130.31;;;26.23;37.97
74310;BME280;62722;51.142;17.052;2023-06-19T11:37:33;100131.75;;;26.32;36.13
74310;BME280;62722;51.142;17.052;2023-06-19T11:40:01;100126.78;;;26.35;36.51
74310;BME280;62722;51.142;17.052;2023-06-19T11:42:44;100128.66;;;26.35;36.21
74310;BME280;62722;51.142;17.052;2023-06-19T11:45:14;100122.84;;;26.38;35.29
74310;BME280;62722;51.142;17.052;2023-06-19T11:47:43;100120.31;;;26.30;37.35
74310;BME280;62722;51.142;17.052;2023-06-19T11:50:13;100117.25;;;26.52;37.47
74310;BME280;62722;51.142;17.052;2023-06-19T11:52:42;100114.31;;;26.74;35.92
74310;BME280;62722;51.142;17.052;2023-06-19T11:55:10;100115.16;;;26.74;37.96
74310;BME280;62722;51.142;17.052;2023-06-19T11:57:38;100112.25;;;26.62;36.89
74310;BME280;62722;51.142;17.052;2023-06-19T12:00:14;100113.91;;;26.70;36.15
74310;BME280;62722;51.142;17.052;2023-06-19T12:02:41;100101.81;;;26.73;36.51
74310;BME280;62722;51.142;17.052;2023-06-19T12:05:09;100116.41;;;26.72;35.56
74310;BME280;62722;51.142;17.052;2023-06-19T12:07:38;100113.47;;;26.73;37.09
74310;BME280;62722;51.142;17.052;2023-06-19T12:10:06;100102.66;;;26.80;38.09
74310;BME280;62722;51.142;17.052;2023-06-19T12:12:36;100113.28;;;26.81;35.22
74310;BME280;62722;51.142;17.052;2023-06-19T12:15:05;100102.03;;;26.78;36.23
74310;BME280;62722;51.142;17.052;2023-06-19T12:17:33;100103.06;;;26.77;40.09
74310;BME280;62722;51.142;17.052;2023-06-19T12:20:01;100106.00;;;26.75;37.90
74310;BME280;62722;51.142;17.052;2023-06-19T12:22:31;100104.75;;;26.78;36.74
74310;BME280;62722;51.142;17.052;2023-06-19T12:25:00;100112.66;;;26.73;37.05
74310;BME280;62722;51.142;17.052;2023-06-19T12:27:27;100102.66;;;26.67;39.20
74310;BME280;62722;51.142;17.052;2023-06-19T12:29:55;100102.25;;;26.70;37.45
74310;BME280;62722;51.142;17.052;2023-06-19T12:32:22;100102.03;;;26.71;36.63
74310;BME280;62722;51.142;17.052;2023-06-19T12:34:51;100105.56;;;26.65;36.96
74310;BME280;62722;51.142;17.052;2023-06-19T12:37:20;100100.16;;;26.65;36.37
74310;BME280;62722;51.142;17.052;2023-06-19T12:39:48;100093.47;;;26.61;35.69
74310;BME280;62722;51.142;17.052;2023-06-19T12:42:17;100083.06;;;26.58;37.31
74310;BME280;62722;51.142;17.052;2023-06-19T12:44:45;100084.34;;;26.62;36.24
74310;BME280;62722;51.142;17.052;2023-06-19T12:47:13;100084.97;;;26.64;37.51
74310;BME280;62722;51.142;17.052;2023-06-19T12:49:41;100087.69;;;26.64;37.86